Manhattan, KS

3:11 AM CST on February 24, 2017 (GMT -0600)
Elbo Creek Estates West | | Change Station

Elev 1047 ft 39.21 °N, 96.51 °W | Updated 27 seconds ago

Overcast
Overcast
36.9 °F
Feels Like 32 °F
N
5.8
Wind Variable Wind from WNW
Gusts 7.4 mph

Today
High -- | Low -- °F
--% Chance of Precip.
Yesterday
High -- | Low -- °F
Precip. -- in
Pressure 29.62 in
Visibility 10.0 miles
Clouds Overcast 1000 ft
Windchill 32 °F
Dew Point 35 °F
Humidity 92%
Rainfall 0.00 in
Snow Depth Not available.
7:05 AM 6:13 PM
Waning Crescent, 6% visible
METAR KMHK 240852Z AUTO 32008KT 10SM OVC010 03/00 A2962 RMK AO2 SLP031 T00280000 51014
Pressure 29.62 in
Visibility 10.0 miles
Clouds Overcast 1000 ft
Windchill 32 °F
Dew Point 35 °F
Humidity 92%
Rainfall 0.00 in
Snow Depth Not available.
7:05 AM 6:13 PM
Waning Crescent, 6% visible
METAR KMHK 240852Z AUTO 32008KT 10SM OVC010 03/00 A2962 RMK AO2 SLP031 T00280000 51014

Get Your Daily Forecast Email!

Thanks for signing up!

Be on the lookout for a verification email in your inbox.

You'll start receiving the daily forecast at 8 AM.

×

10-Day Weather Forecast

Almanac

Astronomy

Feb. 24, 2017 Rise Set
Actual Time
Civil Twilight
Nautical Twilight
Astronomical Twilight
Moon
Length of Visible Light
Length of Day
Tomorrow will be .
, % of the Moon is Illuminated

Today's Extremes

State Highs State Lows

Community

WunderPhotos

Upload Photos

1,962,540 photos uploaded!

WunderBlog® & News

Nearby

Air Quality

  Air Quality AQ Index Pollutant
Not available.

Snow Depth

Station Depth Elevation

Earthquake Activity

City Distance Mag. Time & Date
Minimum magnitude displayed is 2.5.

Coastal Water Temperatures

Place Temperature

Stations

Nearby Weather Stations

Station Location Temp. Windchill Dew Point Humidity Wind Precip. Elev Updated Type
                   

Watches & Warnings

There are currently no watches in effect.